Time;durP1;ratioP1;P1;durP2;ratioP2;P2;SDS_P1;SDS_P2;PMS_P1;PMS_P2;Temp;Humidity;BMP_temperature;BMP_pressure;BME280_temperature;BME280_humidity;BME280_pressure;Samples;Min_cycle;Max_cycle;Signal;HPM_P1;HPM_P2
2023/04/11 00:02:24;;;;;;;;;;;;;;;4.56;84.04;97226.77;110693;1241;69323;-84
2023/04/11 00:04:54;;;;;;;;;;;;;;;4.50;86.87;97229.02;110605;1241;58892;-84
2023/04/11 00:07:24;;;;;;;;;;;;;;;4.42;87.24;97223.53;110689;1238;58866;-84
2023/04/11 00:09:53;;;;;;;;;;;;;;;4.42;87.91;97219.92;110548;1238;70343;-84
2023/04/11 00:12:22;;;;;;;;;;;;;;;4.41;86.77;97215.69;110730;1239;69037;-84
2023/04/11 00:14:52;;;;;;;;;;;;;;;4.38;85.15;97214.42;110567;1241;69292;-84
2023/04/11 00:17:22;;;;;;;;;;;;;;;4.36;85.52;97213.50;110714;1239;59249;-84
2023/04/11 00:19:52;;;;;;;;;;;;;;;4.36;84.11;97211.79;110700;1238;58897;-84
2023/04/11 00:22:23;;;;;;;;;;;;;;;4.37;82.88;97212.39;110629;1241;69853;-84
2023/04/11 00:24:52;;;;;;;;;;;;;;;4.40;83.19;97207.80;110724;1246;69166;-84
2023/04/11 00:27:22;;;;;;;;;;;;;;;4.43;84.78;97211.44;110681;1238;68551;-84
2023/04/11 00:29:53;;;;;;;;;;;;;;;4.46;86.54;97210.96;110417;1242;58888;-84
2023/04/11 00:32:24;;;;;;;;;;;;;;;4.46;88.07;97210.55;110561;1240;58859;-84
2023/04/11 00:34:55;;;;;;;;;;;;;;;4.46;86.90;97207.65;110554;1238;69899;-84
2023/04/11 00:37:25;;;;;;;;;;;;;;;4.48;87.70;97206.52;110693;1240;69121;-84
2023/04/11 00:39:55;;;;;;;;;;;;;;;4.50;88.99;97205.56;110663;1239;69129;-83
2023/04/11 00:42:25;;;;;;;;;;;;;;;4.51;88.50;97205.98;110611;1243;58915;-84
2023/04/11 00:44:54;;;;;;;;;;;;;;;4.55;86.99;97209.05;110723;1240;58870;-84
2023/04/11 00:47:25;;;;;;;;;;;;;;;4.59;88.71;97206.62;110947;1240;69673;-84
2023/04/11 00:49:57;;;;;;;;;;;;;;;4.63;89.18;97207.63;111780;1238;68456;-81
2023/04/11 00:52:31;;;;;;;;;;;;;;;4.67;89.94;97205.20;111664;1238;68485;-84
2023/04/11 00:55:06;;;;;;;;;;;;;;;4.69;89.58;97200.79;110752;1240;58833;-84
2023/04/11 00:57:42;;;;;;;;;;;;;;;4.71;89.17;97201.36;110579;1241;58851;-84
2023/04/11 01:00:13;;;;;;;;;;;;;;;4.71;89.28;97198.06;110612;1238;70732;-83
2023/04/11 01:02:43;;;;;;;;;;;;;;;4.70;88.78;97197.23;110596;1242;68734;-84
2023/04/11 01:05:14;;;;;;;;;;;;;;;4.69;87.96;97197.34;110672;1239;69402;-83
2023/04/11 01:07:47;;;;;;;;;;;;;;;4.69;86.70;97197.33;110627;1237;58949;-82
2023/04/11 01:10:19;;;;;;;;;;;;;;;4.70;86.29;97194.67;110534;1241;58933;-82
2023/04/11 01:12:50;;;;;;;;;;;;;;;4.72;84.66;97194.54;110783;1239;70443;-84
2023/04/11 01:15:19;;;;;;;;;;;;;;;4.75;86.83;97195.45;110665;1238;67508;-82
2023/04/11 01:17:54;;;;;;;;;;;;;;;4.76;86.61;97198.98;110600;1239;69300;-83
2023/04/11 01:20:25;;;;;;;;;;;;;;;4.77;88.64;97192.77;110625;1239;58872;-83
2023/04/11 01:22:57;;;;;;;;;;;;;;;4.78;88.83;97191.31;110646;1239;58869;-83
2023/04/11 01:25:27;;;;;;;;;;;;;;;4.79;88.94;97187.59;110609;1240;69743;-83
2023/04/11 01:27:57;;;;;;;;;;;;;;;4.82;88.24;97187.50;110508;1242;69798;-83
2023/04/11 01:30:27;;;;;;;;;;;;;;;4.81;89.19;97184.91;110663;1240;69199;-83
2023/04/11 01:32:57;;;;;;;;;;;;;;;4.82;88.97;97177.95;111157;1242;58931;-83
2023/04/11 01:35:29;;;;;;;;;;;;;;;4.83;88.86;97177.73;111290;1239;58882;-83
2023/04/11 01:37:59;;;;;;;;;;;;;;;4.83;88.06;97170.48;111346;1237;71150;-83
2023/04/11 01:40:31;;;;;;;;;;;;;;;4.85;86.49;97172.08;110750;1238;69261;-83
2023/04/11 01:43:01;;;;;;;;;;;;;;;4.87;84.64;97171.67;110659;1248;68254;-83
2023/04/11 01:45:33;;;;;;;;;;;;;;;4.86;84.29;97173.95;110670;1238;58898;-83
2023/04/11 01:48:06;;;;;;;;;;;;;;;4.82;86.05;97172.95;110748;1240;58886;-83
2023/04/11 01:50:36;;;;;;;;;;;;;;;4.77;84.74;97172.85;110794;1241;69829;-85
2023/04/11 01:53:06;;;;;;;;;;;;;;;4.74;86.31;97171.83;110697;1240;69111;-85
2023/04/11 01:55:35;;;;;;;;;;;;;;;4.73;86.21;97170.19;110667;1238;68353;-84
2023/04/11 01:58:04;;;;;;;;;;;;;;;4.73;83.61;97167.79;111674;1239;58808;-84
2023/04/11 02:00:38;;;;;;;;;;;;;;;4.72;83.50;97165.40;111961;1237;57934;-84
2023/04/11 02:03:07;;;;;;;;;;;;;;;4.71;86.06;97161.27;111520;1239;69828;-85
2023/04/11 02:05:38;;;;;;;;;;;;;;;4.72;85.59;97161.59;110788;1239;69287;-84
2023/04/11 02:08:08;;;;;;;;;;;;;;;4.74;87.78;97159.08;110671;1238;67948;-83
2023/04/11 02:10:37;;;;;;;;;;;;;;;4.73;86.81;97152.88;110645;1238;58953;-84
2023/04/11 02:13:08;;;;;;;;;;;;;;;4.74;87.30;97156.15;110491;1242;58889;-84
2023/04/11 02:15:41;;;;;;;;;;;;;;;4.73;86.35;97156.86;110703;1239;70558;-85
2023/04/11 02:18:11;;;;;;;;;;;;;;;4.72;85.95;97157.46;110693;1239;69723;-84
2023/04/11 02:20:41;;;;;;;;;;;;;;;4.70;85.10;97153.77;110762;1239;69272;-84
2023/04/11 02:23:11;;;;;;;;;;;;;;;4.66;84.55;97149.65;110581;1241;58880;-84
2023/04/11 02:25:40;;;;;;;;;;;;;;;4.61;85.88;97146.80;110694;1239;58925;-84
2023/04/11 02:28:09;;;;;;;;;;;;;;;4.56;84.79;97146.33;110658;1238;69798;-85
2023/04/11 02:30:42;;;;;;;;;;;;;;;4.51;86.24;97147.13;110746;1238;69379;-84
2023/04/11 02:33:12;;;;;;;;;;;;;;;4.46;89.10;97146.72;110774;1239;68512;-84
2023/04/11 02:35:42;;;;;;;;;;;;;;;4.42;89.34;97148.17;110672;1245;58881;-84
2023/04/11 02:38:13;;;;;;;;;;;;;;;4.36;85.80;97144.67;110623;1240;58872;-78
2023/04/11 02:40:44;;;;;;;;;;;;;;;4.29;85.19;97140.73;110806;1237;70470;-83
2023/04/11 02:43:15;;;;;;;;;;;;;;;4.20;84.46;97139.64;110632;1242;69215;-83
2023/04/11 02:45:47;;;;;;;;;;;;;;;4.11;85.14;97138.36;110453;1242;69220;-83
2023/04/11 02:48:19;;;;;;;;;;;;;;;4.03;87.59;97138.75;110432;1238;58848;-83
2023/04/11 02:50:53;;;;;;;;;;;;;;;3.96;91.07;97139.10;110674;1241;58869;-83
2023/04/11 02:53:23;;;;;;;;;;;;;;;3.90;92.76;97140.11;110731;1241;69849;-82
2023/04/11 02:55:52;;;;;;;;;;;;;;;3.83;92.88;97140.14;110729;1241;69203;-83
2023/04/11 02:58:24;;;;;;;;;;;;;;;3.76;93.51;97143.75;110499;1238;67633;-83
2023/04/11 03:00:55;;;;;;;;;;;;;;;3.70;93.49;97142.66;110597;1242;58886;-83
2023/04/11 03:03:27;;;;;;;;;;;;;;;3.67;94.69;97139.91;110769;1238;58944;-83
2023/04/11 03:05:57;;;;;;;;;;;;;;;3.64;93.03;97135.55;110608;1241;70634;-84
2023/04/11 03:08:26;;;;;;;;;;;;;;;3.65;92.47;97135.89;111444;1238;69091;-84
2023/04/11 03:10:55;;;;;;;;;;;;;;;3.66;91.89;97134.45;111980;1238;68577;-81
2023/04/11 03:13:25;;;;;;;;;;;;;;;3.69;92.21;97131.19;111232;1237;58263;-84
2023/04/11 03:15:55;;;;;;;;;;;;;;;3.70;91.83;97130.96;110910;1238;58892;-83
2023/04/11 03:18:27;;;;;;;;;;;;;;;3.70;91.82;97130.81;110793;1238;69877;-84
2023/04/11 03:20:56;;;;;;;;;;;;;;;3.66;92.64;97125.65;110925;1238;69161;-84
2023/04/11 03:23:25;;;;;;;;;;;;;;;3.61;93.60;97120.75;110749;1239;69272;-83
2023/04/11 03:25:54;;;;;;;;;;;;;;;3.55;92.35;97123.05;110793;1239;58946;-82
2023/04/11 03:28:24;;;;;;;;;;;;;;;3.51;89.38;97120.67;110771;1239;58908;-82
2023/04/11 03:30:53;;;;;;;;;;;;;;;3.47;89.50;97121.76;110625;1240;70426;-82
2023/04/11 03:33:24;;;;;;;;;;;;;;;3.43;90.48;97119.55;110745;1241;69873;-82
2023/04/11 03:35:53;;;;;;;;;;;;;;;3.37;91.44;97118.80;110718;1240;69371;-82
2023/04/11 03:38:22;;;;;;;;;;;;;;;3.34;93.05;97118.63;110438;1242;58931;-82
2023/04/11 03:40:52;;;;;;;;;;;;;;;3.34;91.85;97119.84;110391;1238;58911;-82
2023/04/11 03:43:25;;;;;;;;;;;;;;;3.30;92.34;97121.88;110652;1241;69732;-82
2023/04/11 03:45:55;;;;;;;;;;;;;;;3.26;90.89;97122.60;110418;1242;68096;-83
2023/04/11 03:48:33;;;;;;;;;;;;;;;3.18;91.60;97120.90;110559;1241;69268;-82
2023/04/11 03:51:06;;;;;;;;;;;;;;;3.08;89.96;97120.35;110732;1238;59027;-82
2023/04/11 03:53:44;;;;;;;;;;;;;;;2.94;91.24;97125.65;110651;1242;58824;-82
2023/04/11 03:56:24;;;;;;;;;;;;;;;2.77;92.60;97126.79;110612;1241;70038;-82
2023/04/11 03:58:53;;;;;;;;;;;;;;;2.64;93.83;97128.79;110401;1242;69603;-82
2023/04/11 04:01:24;;;;;;;;;;;;;;;2.53;94.50;97129.06;110570;1238;68546;-81
2023/04/11 04:03:54;;;;;;;;;;;;;;;2.52;94.52;97130.50;110511;1242;59288;-80
2023/04/11 04:06:23;;;;;;;;;;;;;;;2.54;92.61;97129.23;110754;1239;58883;-82
2023/04/11 04:08:52;;;;;;;;;;;;;;;2.58;92.15;97125.95;110642;1242;71234;-82
2023/04/11 04:11:22;;;;;;;;;;;;;;;2.57;93.18;97123.92;110918;1242;68408;-81
2023/04/11 04:13:54;;;;;;;;;;;;;;;2.53;94.25;97124.45;110821;1238;69886;-83
2023/04/11 04:16:23;;;;;;;;;;;;;;;2.49;94.46;97126.70;110858;1238;58972;-83
2023/04/11 04:18:56;;;;;;;;;;;;;;;2.47;94.83;97126.10;111842;1238;58828;-83
2023/04/11 04:21:31;;;;;;;;;;;;;;;2.51;95.48;97124.86;111746;1238;71495;-83
2023/04/11 04:24:02;;;;;;;;;;;;;;;2.67;96.09;97130.36;110732;1242;69134;-82
2023/04/11 04:26:52;;;;;;;;;;;;;;;2.88;96.34;97127.86;110703;1238;67926;-83
2023/04/11 04:29:45;;;;;;;;;;;;;;;3.13;96.37;97123.06;110694;1238;58871;-82
2023/04/11 04:32:23;;;;;;;;;;;;;;;3.35;96.36;97123.36;110430;1242;58997;-78
2023/04/11 04:34:57;;;;;;;;;;;;;;;3.57;96.17;97124.17;110558;1238;71092;-82
2023/04/11 04:37:28;;;;;;;;;;;;;;;3.84;95.93;97117.85;110791;1239;69628;-83
2023/04/11 04:40:07;;;;;;;;;;;;;;;4.10;95.63;97122.38;110632;1238;69142;-83
2023/04/11 04:42:44;;;;;;;;;;;;;;;4.33;94.55;97123.09;110686;1238;58850;-83
2023/04/11 04:45:13;;;;;;;;;;;;;;;4.54;94.35;97124.23;110845;1239;58867;-81
2023/04/11 04:47:42;;;;;;;;;;;;;;;4.78;94.78;97120.85;110571;1242;70043;-85
2023/04/11 04:50:11;;;;;;;;;;;;;;;5.08;95.70;97120.10;110824;1239;69198;-81
2023/04/11 04:52:40;;;;;;;;;;;;;;;5.30;93.23;97127.00;110750;1239;69318;-77
2023/04/11 04:55:10;;;;;;;;;;;;;;;5.46;89.38;97128.32;110518;1242;58863;-75
2023/04/11 04:57:39;;;;;;;;;;;;;;;5.62;87.38;97132.06;110836;1238;58839;-72
2023/04/11 05:00:10;;;;;;;;;;;;;;;5.85;87.70;97133.86;110364;1239;71177;-78
2023/04/11 05:02:40;;;;;;;;;;;;;;;6.21;92.08;97137.13;110621;1242;69035;-78
2023/04/11 05:05:10;;;;;;;;;;;;;;;6.51;91.04;97134.96;110911;1239;69167;-77
2023/04/11 05:07:39;;;;;;;;;;;;;;;6.70;87.93;97138.18;110646;1242;59335;-78
2023/04/11 05:10:08;;;;;;;;;;;;;;;6.75;85.56;97137.30;110734;1242;59020;-78
2023/04/11 05:12:37;;;;;;;;;;;;;;;6.74;83.91;97134.08;110774;1239;70521;-79
2023/04/11 05:15:10;;;;;;;;;;;;;;;6.83;84.32;97133.86;110644;1241;69237;-76
2023/04/11 05:17:40;;;;;;;;;;;;;;;7.06;85.05;97132.06;110513;1242;70060;-77
2023/04/11 05:20:09;;;;;;;;;;;;;;;7.25;81.08;97126.21;110515;1242;58912;-74
2023/04/11 05:22:38;;;;;;;;;;;;;;;7.37;77.87;97120.39;110841;1238;58860;-76
2023/04/11 05:25:08;;;;;;;;;;;;;;;7.55;76.30;97121.50;110637;1241;69813;-78
2023/04/11 05:27:37;;;;;;;;;;;;;;;7.73;74.55;97119.99;111076;1241;69315;-78
2023/04/11 05:30:07;;;;;;;;;;;;;;;8.01;73.05;97116.21;111486;1240;69832;-79
2023/04/11 05:32:37;;;;;;;;;;;;;;;8.12;71.71;97113.71;110787;1240;58825;-78
2023/04/11 05:35:07;;;;;;;;;;;;;;;8.31;70.59;97113.69;110653;1241;58967;-76
2023/04/11 05:37:43;;;;;;;;;;;;;;;8.23;69.44;97110.22;110763;1238;69921;-78
2023/04/11 05:40:12;;;;;;;;;;;;;;;8.55;67.57;97104.05;110711;1241;69219;-78
2023/04/11 05:42:41;;;;;;;;;;;;;;;8.73;67.06;97096.02;110596;1241;69688;-80
2023/04/11 05:45:10;;;;;;;;;;;;;;;8.74;67.26;97091.59;110401;1242;58970;-78
2023/04/11 05:47:39;;;;;;;;;;;;;;;8.89;66.03;97088.23;110604;1241;58863;-74
2023/04/11 05:50:09;;;;;;;;;;;;;;;9.15;65.39;97089.73;110612;1243;71139;-74
2023/04/11 05:52:38;;;;;;;;;;;;;;;9.44;64.73;97089.20;110631;1242;69815;-75
2023/04/11 05:55:07;;;;;;;;;;;;;;;9.62;64.44;97089.90;110471;1242;69269;-76
2023/04/11 05:57:35;;;;;;;;;;;;;;;10.05;67.25;97087.27;110479;1242;58857;-68
2023/04/11 06:00:11;;;;;;;;;;;;;;;10.40;63.03;97086.48;110524;1242;58929;-76
2023/04/11 06:02:40;;;;;;;;;;;;;;;10.60;61.06;97085.98;110640;1241;69845;-75
2023/04/11 06:05:10;;;;;;;;;;;;;;;10.54;60.50;97085.95;110426;1238;69375;-75
2023/04/11 06:07:40;;;;;;;;;;;;;;;10.38;60.00;97081.20;110559;1241;69886;-76
2023/04/11 06:10:08;;;;;;;;;;;;;;;10.76;60.11;97078.50;110673;1240;58867;-76
2023/04/11 06:12:37;;;;;;;;;;;;;;;10.85;58.57;97074.09;110567;1241;58923;-73
2023/04/11 06:15:08;;;;;;;;;;;;;;;11.09;59.24;97074.98;110432;1241;71146;-74
2023/04/11 06:17:37;;;;;;;;;;;;;;;10.81;57.61;97071.82;110762;1240;69838;-73
2023/04/11 06:20:06;;;;;;;;;;;;;;;10.97;57.81;97076.76;110649;1241;69896;-73
2023/04/11 06:22:35;;;;;;;;;;;;;;;11.39;57.21;97072.73;110687;1239;58930;-72
2023/04/11 06:25:03;;;;;;;;;;;;;;;11.62;55.88;97072.42;110941;1239;58895;-72
2023/04/11 06:27:32;;;;;;;;;;;;;;;11.80;54.61;97069.70;110791;1238;70567;-73
2023/04/11 06:30:00;;;;;;;;;;;;;;;12.12;53.97;97068.23;110716;1242;69795;-73
2023/04/11 06:32:29;;;;;;;;;;;;;;;12.39;53.99;97058.67;110636;1241;69855;-73
2023/04/11 06:34:57;;;;;;;;;;;;;;;12.94;53.12;97052.32;110663;1237;58907;-74
2023/04/11 06:37:26;;;;;;;;;;;;;;;13.34;51.75;97051.34;111788;1238;57852;-73
2023/04/11 06:39:54;;;;;;;;;;;;;;;13.93;50.38;97046.03;111121;1241;71181;-73
2023/04/11 06:42:25;;;;;;;;;;;;;;;14.47;49.06;97043.60;110570;1237;69157;-73
2023/04/11 06:44:55;;;;;;;;;;;;;;;14.83;47.62;97046.33;110823;1239;69880;-73
2023/04/11 06:47:24;;;;;;;;;;;;;;;15.17;46.80;97047.42;110743;1239;58868;-74
2023/04/11 06:49:53;;;;;;;;;;;;;;;15.35;46.11;97044.96;110834;1239;58789;-74
2023/04/11 06:52:21;;;;;;;;;;;;;;;15.27;44.68;97048.61;110629;1239;69843;-73
2023/04/11 06:54:50;;;;;;;;;;;;;;;15.44;45.02;97050.29;110646;1241;69796;-73
2023/04/11 06:57:18;;;;;;;;;;;;;;;15.46;42.85;97047.40;110694;1239;68290;-73
2023/04/11 06:59:47;;;;;;;;;;;;;;;15.53;43.43;97052.40;110636;1238;58912;-73
2023/04/11 07:02:15;;;;;;;;;;;;;;;15.75;43.24;97049.68;110389;1242;58827;-74
2023/04/11 07:04:44;;;;;;;;;;;;;;;15.72;43.01;97044.86;110810;1241;69619;-73
2023/04/11 07:07:13;;;;;;;;;;;;;;;15.75;43.28;97044.52;110811;1240;69823;-73
2023/04/11 07:09:42;;;;;;;;;;;;;;;15.70;42.91;97042.42;110326;1238;69584;-73
2023/04/11 07:12:11;;;;;;;;;;;;;;;15.60;43.68;97044.30;110529;1243;58922;-71
2023/04/11 07:14:39;;;;;;;;;;;;;;;15.55;43.63;97043.54;110704;1239;58918;-72
2023/04/11 07:17:08;;;;;;;;;;;;;;;15.35;44.27;97040.75;110764;1239;70531;-72
2023/04/11 07:19:36;;;;;;;;;;;;;;;15.51;42.68;97036.55;110892;1240;69224;-72
2023/04/11 07:22:05;;;;;;;;;;;;;;;15.86;42.97;97033.97;110755;1241;68312;-73
2023/04/11 07:24:34;;;;;;;;;;;;;;;16.01;43.17;97030.55;110532;1240;59020;-73
2023/04/11 07:27:03;;;;;;;;;;;;;;;16.22;42.77;97022.80;110774;1240;58964;-73
2023/04/11 07:29:32;;;;;;;;;;;;;;;16.38;42.77;97022.20;110795;1237;71156;-72
2023/04/11 07:32:00;;;;;;;;;;;;;;;16.80;42.74;97020.90;110763;1239;69776;-73
2023/04/11 07:34:29;;;;;;;;;;;;;;;17.23;41.31;97023.38;110668;1239;68351;-73
2023/04/11 07:36:59;;;;;;;;;;;;;;;17.55;40.46;97020.18;110700;1241;58868;-72
2023/04/11 07:39:28;;;;;;;;;;;;;;;17.98;40.91;97022.48;110722;1237;58934;-71
2023/04/11 07:41:56;;;;;;;;;;;;;;;18.11;39.86;97019.05;110724;1239;70360;-71
2023/04/11 07:44:25;;;;;;;;;;;;;;;17.67;39.43;97017.27;111063;1237;68529;-72
2023/04/11 07:46:54;;;;;;;;;;;;;;;17.66;38.40;97013.64;111903;1239;69247;-72
2023/04/11 07:49:23;;;;;;;;;;;;;;;17.79;38.78;97009.50;110642;1244;58872;-71
2023/04/11 07:51:51;;;;;;;;;;;;;;;18.09;39.40;97004.23;110718;1244;58940;-71
2023/04/11 07:54:20;;;;;;;;;;;;;;;17.95;38.04;97005.05;110861;1239;70571;-71
2023/04/11 07:56:48;;;;;;;;;;;;;;;18.07;38.56;97000.27;110753;1239;69795;-71
2023/04/11 07:59:17;;;;;;;;;;;;;;;18.11;37.87;96992.27;110524;1242;69486;-71
2023/04/11 08:01:46;;;;;;;;;;;;;;;18.40;37.92;96989.21;110554;1240;58932;-74
2023/04/11 08:04:14;;;;;;;;;;;;;;;18.34;37.07;96989.45;110722;1239;58792;-73
2023/04/11 08:06:43;;;;;;;;;;;;;;;18.36;36.39;96990.15;110638;1241;69923;-72
2023/04/11 08:09:12;;;;;;;;;;;;;;;18.26;36.13;96987.20;110691;1242;69201;-73
2023/04/11 08:11:41;;;;;;;;;;;;;;;18.50;36.38;96985.41;110557;1238;70179;-73
2023/04/11 08:14:09;;;;;;;;;;;;;;;18.92;35.50;96984.64;110601;1239;58876;-73
2023/04/11 08:16:38;;;;;;;;;;;;;;;19.14;34.25;96980.38;110752;1239;58795;-73
2023/04/11 08:19:09;;;;;;;;;;;;;;;19.81;35.07;96977.19;110709;1239;69918;-75
2023/04/11 08:21:37;;;;;;;;;;;;;;;19.72;34.16;96976.16;110569;1239;68565;-73
2023/04/11 08:24:07;;;;;;;;;;;;;;;19.45;33.97;96968.79;110599;1239;68425;-74
2023/04/11 08:26:36;;;;;;;;;;;;;;;19.05;34.96;96967.86;110633;1240;58892;-73
2023/04/11 08:29:04;;;;;;;;;;;;;;;18.60;35.57;96963.50;110632;1239;58886;-75
2023/04/11 08:31:33;;;;;;;;;;;;;;;18.42;35.25;96954.80;110736;1239;69840;-75
2023/04/11 08:34:01;;;;;;;;;;;;;;;18.44;35.47;96953.02;110602;1239;69278;-76
2023/04/11 08:36:33;;;;;;;;;;;;;;;18.16;36.57;96950.30;110577;1239;69862;-75
2023/04/11 08:39:02;;;;;;;;;;;;;;;18.08;36.83;96950.09;110588;1245;58883;-76
2023/04/11 08:41:32;;;;;;;;;;;;;;;18.00;37.00;96946.66;110587;1239;58932;-75
2023/04/11 08:44:01;;;;;;;;;;;;;;;18.25;37.03;96944.44;110614;1239;70481;-74
2023/04/11 08:46:31;;;;;;;;;;;;;;;17.98;35.88;96940.02;110586;1239;69779;-75
2023/04/11 08:49:00;;;;;;;;;;;;;;;18.31;36.55;96936.25;110640;1246;69888;-75
2023/04/11 08:51:30;;;;;;;;;;;;;;;18.40;36.17;96931.40;110816;1239;58892;-74
2023/04/11 08:54:03;;;;;;;;;;;;;;;18.42;36.36;96926.19;112426;1238;58911;-76
2023/04/11 08:56:32;;;;;;;;;;;;;;;18.36;35.47;96916.46;110857;1242;69589;-74
2023/04/11 08:59:01;;;;;;;;;;;;;;;18.23;35.84;96910.09;110780;1239;70199;-74
2023/04/11 09:01:31;;;;;;;;;;;;;;;17.87;35.96;96911.33;110764;1239;69880;-73
2023/04/11 09:04:04;;;;;;;;;;;;;;;17.39;35.67;96908.23;110801;1240;58977;-73
2023/04/11 09:06:33;;;;;;;;;;;;;;;17.39;36.36;96905.59;110837;1240;58888;-73
2023/04/11 09:09:05;;;;;;;;;;;;;;;17.54;35.33;96896.48;110637;1239;70345;-73
2023/04/11 09:12:03;;;;;;;;;;;;;;;17.68;33.90;96888.87;110606;1239;68936;-73
2023/04/11 09:14:31;;;;;;;;;;;;;;;18.01;32.84;96881.19;110406;1240;69319;-73
2023/04/11 09:17:03;;;;;;;;;;;;;;;18.21;31.96;96880.22;110602;1239;58861;-74
2023/04/11 09:19:32;;;;;;;;;;;;;;;18.21;32.13;96874.48;110719;1241;58926;-75
2023/04/11 09:22:04;;;;;;;;;;;;;;;18.19;32.25;96871.22;110696;1239;70305;-73
2023/04/11 09:24:34;;;;;;;;;;;;;;;18.29;31.69;96867.64;110675;1239;69199;-75
2023/04/11 09:27:07;;;;;;;;;;;;;;;18.44;31.89;96862.27;110709;1239;68373;-74
2023/04/11 09:29:37;;;;;;;;;;;;;;;18.21;32.43;96858.19;110281;1239;522340;-74
2023/04/11 09:32:06;;;;;;;;;;;;;;;17.76;32.87;96849.27;110782;1239;58871;-73
2023/04/11 09:34:36;;;;;;;;;;;;;;;18.00;33.58;96849.39;110729;1245;69698;-73
2023/04/11 09:37:05;;;;;;;;;;;;;;;18.53;32.83;96849.39;110703;1237;69091;-74
2023/04/11 09:39:34;;;;;;;;;;;;;;;19.26;32.84;96841.17;110674;1239;69704;-74
2023/04/11 09:42:21;;;;;;;;;;;;;;;20.02;31.80;96835.13;110711;1239;58879;-74
2023/04/11 09:44:50;;;;;;;;;;;;;;;20.39;31.18;96830.68;110772;1244;58857;-73
2023/04/11 09:47:18;;;;;;;;;;;;;;;20.04;30.53;96822.98;110672;1238;70961;-73
2023/04/11 09:49:47;;;;;;;;;;;;;;;19.22;30.98;96828.23;110803;1246;68293;-73
2023/04/11 09:52:16;;;;;;;;;;;;;;;18.27;32.21;96821.35;110696;1239;69106;-73
2023/04/11 09:54:47;;;;;;;;;;;;;;;17.79;32.34;96820.52;110644;1239;58905;-74
2023/04/11 09:57:16;;;;;;;;;;;;;;;17.31;33.40;96817.61;110624;1239;58930;-75
2023/04/11 09:59:45;;;;;;;;;;;;;;;16.96;34.61;96808.54;110740;1239;70389;-74
2023/04/11 10:02:14;;;;;;;;;;;;;;;17.40;34.35;96800.02;112003;1237;68242;-74
2023/04/11 10:04:43;;;;;;;;;;;;;;;18.21;34.20;96797.14;110716;1238;68397;-75
2023/04/11 10:07:13;;;;;;;;;;;;;;;19.34;32.86;96788.46;110804;1238;58934;-75
2023/04/11 10:09:45;;;;;;;;;;;;;;;20.10;32.07;96783.83;110743;1239;58960;-75
2023/04/11 10:12:29;;;;;;;;;;;;;;;20.78;30.13;96779.02;110724;1239;69977;-73
2023/04/11 10:15:05;;;;;;;;;;;;;;;20.23;29.84;96777.92;110619;1239;68368;-74
2023/04/11 10:17:35;;;;;;;;;;;;;;;19.26;30.52;96781.06;110610;1239;69166;-75
2023/04/11 10:20:23;;;;;;;;;;;;;;;18.95;31.34;96773.48;110688;1239;58952;-74
2023/04/11 10:22:59;;;;;;;;;;;;;;;18.52;31.99;96777.51;110756;1242;58883;-74
2023/04/11 10:25:28;;;;;;;;;;;;;;;18.07;32.51;96779.02;110825;1239;71174;-75
2023/04/11 10:28:02;;;;;;;;;;;;;;;17.45;33.47;96776.00;110775;1242;69813;-75
2023/04/11 10:30:40;;;;;;;;;;;;;;;17.09;34.15;96770.27;110684;1239;69187;-75
2023/04/11 10:33:12;;;;;;;;;;;;;;;16.77;34.28;96771.34;110798;1239;58995;-74
2023/04/11 10:36:14;;;;;;;;;;;;;;;16.33;35.40;96776.89;110976;1239;58943;-74
2023/04/11 10:38:43;;;;;;;;;;;;;;;16.17;36.67;96773.50;110279;1247;70367;-73
2023/04/11 10:41:17;;;;;;;;;;;;;;;16.23;36.23;96773.08;110793;1239;69086;-73
2023/04/11 10:43:46;;;;;;;;;;;;;;;16.00;36.63;96765.50;110724;1239;69867;-76
2023/04/11 10:46:20;;;;;;;;;;;;;;;15.98;36.24;96761.91;110677;1239;58940;-75
2023/04/11 10:49:03;;;;;;;;;;;;;;;15.82;36.75;96756.10;110798;1239;58816;-75
2023/04/11 10:51:32;;;;;;;;;;;;;;;15.65;37.26;96753.30;110730;1240;70960;-78
2023/04/11 10:54:01;;;;;;;;;;;;;;;15.69;37.16;96747.56;110598;1239;69745;-77
2023/04/11 10:56:56;;;;;;;;;;;;;;;15.79;37.00;96745.88;110715;1239;68501;-77
2023/04/11 10:59:31;;;;;;;;;;;;;;;15.96;37.89;96742.86;110633;1239;58890;-78
2023/04/11 11:02:00;;;;;;;;;;;;;;;15.92;37.07;96741.17;110651;1245;58870;-77
2023/04/11 11:04:33;;;;;;;;;;;;;;;16.09;36.57;96740.45;110680;1237;70991;-80
2023/04/11 11:07:03;;;;;;;;;;;;;;;16.24;36.82;96737.55;110673;1242;68758;-78
2023/04/11 11:09:32;;;;;;;;;;;;;;;16.49;35.26;96734.36;111656;1243;68532;-77
2023/04/11 11:12:27;;;;;;;;;;;;;;;16.76;34.45;96733.58;110894;1241;58905;-78
2023/04/11 11:14:56;;;;;;;;;;;;;;;17.28;34.62;96727.90;110509;1242;58820;-79
2023/04/11 11:17:24;;;;;;;;;;;;;;;17.70;34.48;96724.25;110764;1241;70475;-79
2023/04/11 11:19:53;;;;;;;;;;;;;;;17.99;33.40;96719.10;110856;1239;69258;-78
2023/04/11 11:22:24;;;;;;;;;;;;;;;18.03;32.92;96712.38;110691;1239;69189;-78
2023/04/11 11:24:53;;;;;;;;;;;;;;;18.04;33.34;96714.67;110558;1240;58879;-79
2023/04/11 11:27:22;;;;;;;;;;;;;;;17.69;33.44;96711.21;110735;1242;59188;-78
2023/04/11 11:29:51;;;;;;;;;;;;;;;17.36;34.17;96711.90;110596;1242;71178;-78
2023/04/11 11:32:28;;;;;;;;;;;;;;;17.04;35.27;96707.52;110747;1240;69250;-79
2023/04/11 11:34:57;;;;;;;;;;;;;;;16.61;35.92;96706.08;110660;1238;69263;-79
2023/04/11 11:37:26;;;;;;;;;;;;;;;16.15;36.97;96703.72;110514;1240;58855;-79
2023/04/11 11:39:54;;;;;;;;;;;;;;;15.95;36.93;96701.64;110608;1241;58883;-79
2023/04/11 11:42:23;;;;;;;;;;;;;;;15.71;37.35;96697.83;110638;1242;71185;-79
2023/04/11 11:44:51;;;;;;;;;;;;;;;15.45;37.31;96696.38;110721;1242;69690;-78
2023/04/11 11:47:20;;;;;;;;;;;;;;;15.37;36.42;96692.76;110688;1242;68279;-79
2023/04/11 11:49:49;;;;;;;;;;;;;;;15.21;36.72;96695.16;110766;1242;58949;-77
2023/04/11 11:52:34;;;;;;;;;;;;;;;15.17;36.76;96690.75;110536;1241;58883;-77
2023/04/11 11:55:05;;;;;;;;;;;;;;;15.13;39.09;96689.85;110578;1242;69836;-77
2023/04/11 11:57:47;;;;;;;;;;;;;;;15.28;38.03;96681.45;110621;1241;68432;-78
2023/04/11 12:00:26;;;;;;;;;;;;;;;15.48;37.30;96678.67;110623;1242;70050;-78
2023/04/11 12:02:56;;;;;;;;;;;;;;;15.64;37.77;96671.52;110637;1240;58928;-78
2023/04/11 12:05:28;;;;;;;;;;;;;;;15.99;37.01;96664.69;110661;1241;58888;-78
2023/04/11 12:08:05;;;;;;;;;;;;;;;16.39;35.80;96660.90;110666;1242;71169;-78
2023/04/11 12:10:38;;;;;;;;;;;;;;;16.90;35.19;96654.63;110684;1242;69220;-78
2023/04/11 12:13:15;;;;;;;;;;;;;;;17.55;34.53;96656.66;110614;1241;68589;-78
2023/04/11 12:15:45;;;;;;;;;;;;;;;18.41;35.04;96649.88;110744;1240;58909;-78
2023/04/11 12:18:13;;;;;;;;;;;;;;;19.33;33.60;96647.40;112362;1240;57919;-77
2023/04/11 12:20:42;;;;;;;;;;;;;;;20.46;32.68;96643.86;110645;1240;71179;-79
2023/04/11 12:23:11;;;;;;;;;;;;;;;21.27;30.83;96639.40;110746;1238;69733;-79
2023/04/11 12:25:39;;;;;;;;;;;;;;;21.68;29.16;96637.61;110724;1241;68271;-77
2023/04/11 12:28:08;;;;;;;;;;;;;;;22.36;29.30;96628.73;110616;1238;58856;-79
2023/04/11 12:30:37;;;;;;;;;;;;;;;22.84;28.62;96622.89;110736;1241;58887;-78
2023/04/11 12:33:06;;;;;;;;;;;;;;;23.14;28.34;96619.80;110698;1243;69820;-79
2023/04/11 12:35:34;;;;;;;;;;;;;;;22.78;26.50;96612.06;110626;1241;69224;-78
2023/04/11 12:38:03;;;;;;;;;;;;;;;21.79;27.71;96616.20;110602;1241;69704;-79
2023/04/11 12:40:31;;;;;;;;;;;;;;;20.74;28.66;96613.14;110690;1242;58918;-78
2023/04/11 12:43:04;;;;;;;;;;;;;;;20.36;29.68;96607.25;110700;1242;58879;-79
2023/04/11 12:45:32;;;;;;;;;;;;;;;20.04;29.22;96604.64;110694;1239;71017;-79
2023/04/11 12:48:01;;;;;;;;;;;;;;;19.99;29.25;96603.01;110598;1242;69422;-80
2023/04/11 12:50:29;;;;;;;;;;;;;;;19.47;29.86;96598.53;110508;1242;69249;-81
2023/04/11 12:52:58;;;;;;;;;;;;;;;19.11;30.51;96596.34;110676;1242;58873;-78
2023/04/11 12:55:27;;;;;;;;;;;;;;;18.95;30.18;96590.87;110708;1238;58872;-79
2023/04/11 12:57:56;;;;;;;;;;;;;;;19.66;30.91;96586.73;110638;1241;70544;-80
2023/04/11 13:00:25;;;;;;;;;;;;;;;20.36;30.00;96579.80;110665;1241;69191;-79